sensor_id;sensor_type;location;lat;lon;timestamp;pressure;altitude;pressure_sealevel;temperature;humidity
41624;BME280;27319;50.306;18.926;2023-08-17T00:02:45;98495.00;;;23.83;78.98
41624;BME280;27319;50.306;18.926;2023-08-17T00:05:47;98494.56;;;23.74;80.11
41624;BME280;27319;50.306;18.926;2023-08-17T00:08:47;98506.59;;;23.73;80.79
41624;BME280;27319;50.306;18.926;2023-08-17T00:12:08;98503.72;;;23.52;81.83
41624;BME280;27319;50.306;18.926;2023-08-17T00:16:08;98489.78;;;23.53;82.04
41624;BME280;27319;50.306;18.926;2023-08-17T00:20:09;98501.66;;;23.59;80.82
41624;BME280;27319;50.306;18.926;2023-08-17T00:23:50;98497.31;;;23.74;80.13
41624;BME280;27319;50.306;18.926;2023-08-17T00:26:51;98495.06;;;23.71;78.35
41624;BME280;27319;50.306;18.926;2023-08-17T00:29:52;98499.03;;;23.64;78.40
41624;BME280;27319;50.306;18.926;2023-08-17T00:33:12;98489.69;;;23.76;77.61
41624;BME280;27319;50.306;18.926;2023-08-17T00:37:13;98503.28;;;23.71;77.02
41624;BME280;27319;50.306;18.926;2023-08-17T00:40:54;98499.13;;;23.69;78.54
41624;BME280;27319;50.306;18.926;2023-08-17T00:43:56;98519.78;;;23.60;78.50
41624;BME280;27319;50.306;18.926;2023-08-17T00:46:57;98515.56;;;23.41;79.30
41624;BME280;27319;50.306;18.926;2023-08-17T00:49:58;98518.81;;;23.26;80.48
41624;BME280;27319;50.306;18.926;2023-08-17T00:53:00;98517.59;;;23.34;78.41
41624;BME280;27319;50.306;18.926;2023-08-17T00:56:02;98519.72;;;23.32;80.35
41624;BME280;27319;50.306;18.926;2023-08-17T00:59:04;98519.44;;;23.17;80.56
41624;BME280;27319;50.306;18.926;2023-08-17T01:02:04;98524.88;;;23.05;80.50
41624;BME280;27319;50.306;18.926;2023-08-17T01:05:06;98528.22;;;22.96;81.91
41624;BME280;27319;50.306;18.926;2023-08-17T01:08:06;98529.81;;;22.92;81.32
41624;BME280;27319;50.306;18.926;2023-08-17T01:11:29;98518.25;;;22.90;81.23
41624;BME280;27319;50.306;18.926;2023-08-17T01:15:08;98533.97;;;22.83;81.85
41624;BME280;27319;50.306;18.926;2023-08-17T01:21:49;98530.16;;;22.61;82.41
41624;BME280;27319;50.306;18.926;2023-08-17T01:25:27;98548.94;;;22.57;83.06
41624;BME280;27319;50.306;18.926;2023-08-17T01:28:27;98539.69;;;22.70;83.13
41624;BME280;27319;50.306;18.926;2023-08-17T01:31:32;98545.38;;;22.68;82.91
41624;BME280;27319;50.306;18.926;2023-08-17T01:34:48;98552.88;;;22.73;82.95
41624;BME280;27319;50.306;18.926;2023-08-17T01:37:52;98551.72;;;22.69;82.70
41624;BME280;27319;50.306;18.926;2023-08-17T01:40:54;98547.66;;;22.83;82.17
41624;BME280;27319;50.306;18.926;2023-08-17T01:43:56;98555.50;;;22.68;82.29
41624;BME280;27319;50.306;18.926;2023-08-17T01:46:58;98544.22;;;22.76;82.66
41624;BME280;27319;50.306;18.926;2023-08-17T01:49:59;98546.94;;;22.99;81.75
41624;BME280;27319;50.306;18.926;2023-08-17T01:53:00;98546.56;;;22.84;81.08
41624;BME280;27319;50.306;18.926;2023-08-17T01:56:01;98544.88;;;22.94;81.45
41624;BME280;27319;50.306;18.926;2023-08-17T01:59:21;98543.09;;;22.88;81.44
41624;BME280;27319;50.306;18.926;2023-08-17T02:03:22;98537.06;;;22.86;81.32
41624;BME280;27319;50.306;18.926;2023-08-17T02:07:23;98538.00;;;23.03;81.10
41624;BME280;27319;50.306;18.926;2023-08-17T02:11:04;98543.25;;;22.82;81.04
41624;BME280;27319;50.306;18.926;2023-08-17T02:14:05;98531.22;;;22.83;81.49
41624;BME280;27319;50.306;18.926;2023-08-17T02:17:06;98534.66;;;22.67;82.88
41624;BME280;27319;50.306;18.926;2023-08-17T02:20:07;98538.25;;;22.67;82.51
41624;BME280;27319;50.306;18.926;2023-08-17T02:23:09;98547.75;;;22.76;82.21
41624;BME280;27319;50.306;18.926;2023-08-17T02:26:10;98553.38;;;22.70;82.45
41624;BME280;27319;50.306;18.926;2023-08-17T02:29:11;98551.56;;;22.52;83.60
41624;BME280;27319;50.306;18.926;2023-08-17T02:32:12;98555.06;;;22.41;84.01
41624;BME280;27319;50.306;18.926;2023-08-17T02:35:33;98556.06;;;22.58;82.68
41624;BME280;27319;50.306;18.926;2023-08-17T02:39:34;98559.91;;;22.69;82.14
41624;BME280;27319;50.306;18.926;2023-08-17T02:43:31;98559.78;;;22.64;82.19
41624;BME280;27319;50.306;18.926;2023-08-17T02:46:31;98557.88;;;22.76;82.20
41624;BME280;27319;50.306;18.926;2023-08-17T02:49:33;98563.00;;;22.72;82.28
41624;BME280;27319;50.306;18.926;2023-08-17T02:52:33;98565.03;;;22.77;81.85
41624;BME280;27319;50.306;18.926;2023-08-17T02:55:34;98559.56;;;22.77;81.75
41624;BME280;27319;50.306;18.926;2023-08-17T02:58:35;98558.69;;;22.53;82.90
41624;BME280;27319;50.306;18.926;2023-08-17T03:01:36;98553.94;;;22.49;82.85
41624;BME280;27319;50.306;18.926;2023-08-17T03:04:37;98562.63;;;22.46;83.50
41624;BME280;27319;50.306;18.926;2023-08-17T03:07:38;98564.06;;;22.60;83.02
41624;BME280;27319;50.306;18.926;2023-08-17T03:10:39;98562.63;;;22.46;83.50
41624;BME280;27319;50.306;18.926;2023-08-17T03:13:40;98559.53;;;22.65;82.91
41624;BME280;27319;50.306;18.926;2023-08-17T03:16:40;98565.63;;;22.67;82.40
41624;BME280;27319;50.306;18.926;2023-08-17T03:19:42;98560.84;;;22.63;82.48
41624;BME280;27319;50.306;18.926;2023-08-17T03:22:42;98558.03;;;22.40;84.72
41624;BME280;27319;50.306;18.926;2023-08-17T03:25:43;98546.50;;;22.38;85.03
41624;BME280;27319;50.306;18.926;2023-08-17T03:28:46;98547.28;;;22.56;84.15
41624;BME280;27319;50.306;18.926;2023-08-17T03:31:47;98540.28;;;22.19;86.81
41624;BME280;27319;50.306;18.926;2023-08-17T03:34:50;98537.09;;;22.34;86.31
41624;BME280;27319;50.306;18.926;2023-08-17T03:37:51;98534.72;;;22.26;86.65
41624;BME280;27319;50.306;18.926;2023-08-17T03:40:51;98528.75;;;22.17;87.81
41624;BME280;27319;50.306;18.926;2023-08-17T03:43:53;98535.72;;;22.02;89.58
41624;BME280;27319;50.306;18.926;2023-08-17T03:46:53;98536.75;;;21.89;90.98
41624;BME280;27319;50.306;18.926;2023-08-17T03:49:54;98531.28;;;21.89;90.68
41624;BME280;27319;50.306;18.926;2023-08-17T03:52:55;98541.06;;;21.97;91.03
41624;BME280;27319;50.306;18.926;2023-08-17T03:55:56;98537.38;;;21.91;91.04
41624;BME280;27319;50.306;18.926;2023-08-17T03:58:57;98532.00;;;21.85;91.21
41624;BME280;27319;50.306;18.926;2023-08-17T04:01:58;98535.38;;;21.98;91.29
41624;BME280;27319;50.306;18.926;2023-08-17T04:04:59;98539.69;;;22.06;90.93
41624;BME280;27319;50.306;18.926;2023-08-17T04:08:00;98538.47;;;22.13;90.86
41624;BME280;27319;50.306;18.926;2023-08-17T04:11:03;98543.28;;;22.18;90.12
41624;BME280;27319;50.306;18.926;2023-08-17T04:14:04;98547.25;;;22.04;91.92
41624;BME280;27319;50.306;18.926;2023-08-17T04:17:05;98549.19;;;22.15;89.84
41624;BME280;27319;50.306;18.926;2023-08-17T04:20:07;98550.13;;;22.09;91.89
41624;BME280;27319;50.306;18.926;2023-08-17T04:23:08;98556.41;;;21.98;92.84
41624;BME280;27319;50.306;18.926;2023-08-17T04:26:09;98564.72;;;21.91;92.88
41624;BME280;27319;50.306;18.926;2023-08-17T04:29:30;98570.13;;;21.62;95.55
41624;BME280;27319;50.306;18.926;2023-08-17T04:33:30;98574.28;;;21.64;95.98
41624;BME280;27319;50.306;18.926;2023-08-17T04:37:31;98571.56;;;22.12;91.25
41624;BME280;27319;50.306;18.926;2023-08-17T04:41:12;98575.59;;;22.21;90.70
41624;BME280;27319;50.306;18.926;2023-08-17T04:44:13;98575.88;;;22.31;89.64
41624;BME280;27319;50.306;18.926;2023-08-17T04:47:14;98565.94;;;22.48;89.17
41624;BME280;27319;50.306;18.926;2023-08-17T04:50:15;98567.25;;;22.45;89.35
41624;BME280;27319;50.306;18.926;2023-08-17T04:53:17;98572.16;;;22.25;91.69
41624;BME280;27319;50.306;18.926;2023-08-17T04:56:17;98576.19;;;22.11;91.68
41624;BME280;27319;50.306;18.926;2023-08-17T04:59:38;98577.03;;;22.12;91.68
41624;BME280;27319;50.306;18.926;2023-08-17T05:03:39;98571.84;;;22.33;90.56
41624;BME280;27319;50.306;18.926;2023-08-17T05:07:40;98578.09;;;22.22;92.14
41624;BME280;27319;50.306;18.926;2023-08-17T05:11:41;98580.06;;;22.04;93.92
41624;BME280;27319;50.306;18.926;2023-08-17T05:15:22;98588.09;;;21.87;96.40
41624;BME280;27319;50.306;18.926;2023-08-17T05:18:42;98594.97;;;22.19;93.91
41624;BME280;27319;50.306;18.926;2023-08-17T05:22:43;98595.91;;;22.13;93.41
41624;BME280;27319;50.306;18.926;2023-08-17T05:26:44;98588.88;;;22.06;95.15
41624;BME280;27319;50.306;18.926;2023-08-17T05:30:45;98610.34;;;22.32;94.31
41624;BME280;27319;50.306;18.926;2023-08-17T05:34:46;98613.31;;;22.71;91.08
41624;BME280;27319;50.306;18.926;2023-08-17T05:38:46;98629.41;;;22.79;90.10
41624;BME280;27319;50.306;18.926;2023-08-17T05:42:47;98632.16;;;22.91;89.54
41624;BME280;27319;50.306;18.926;2023-08-17T05:46:48;98626.50;;;23.27;87.03
41624;BME280;27319;50.306;18.926;2023-08-17T05:50:48;98626.66;;;22.91;87.76
41624;BME280;27319;50.306;18.926;2023-08-17T05:54:49;98614.03;;;22.67;90.66
41624;BME280;27319;50.306;18.926;2023-08-17T05:58:49;98623.09;;;23.02;89.79
41624;BME280;27319;50.306;18.926;2023-08-17T06:02:50;98629.91;;;23.22;88.97
41624;BME280;27319;50.306;18.926;2023-08-17T06:06:51;98631.81;;;23.33;87.90
41624;BME280;27319;50.306;18.926;2023-08-17T06:10:52;98629.56;;;23.19;87.72
41624;BME280;27319;50.306;18.926;2023-08-17T06:14:53;98624.22;;;23.24;89.12
41624;BME280;27319;50.306;18.926;2023-08-17T06:18:53;98643.59;;;23.45;87.80
41624;BME280;27319;50.306;18.926;2023-08-17T06:22:54;98631.78;;;23.10;90.10
41624;BME280;27319;50.306;18.926;2023-08-17T06:26:55;98631.44;;;22.84;91.97
41624;BME280;27319;50.306;18.926;2023-08-17T06:30:56;98618.81;;;23.06;89.52
41624;BME280;27319;50.306;18.926;2023-08-17T06:34:56;98623.72;;;23.38;89.27
41624;BME280;27319;50.306;18.926;2023-08-17T06:38:57;98625.44;;;23.79;87.51
41624;BME280;27319;50.306;18.926;2023-08-17T06:42:58;98643.00;;;24.06;84.84
41624;BME280;27319;50.306;18.926;2023-08-17T06:46:59;98630.66;;;23.80;88.77
41624;BME280;27319;50.306;18.926;2023-08-17T06:50:59;98638.06;;;23.91;86.67
41624;BME280;27319;50.306;18.926;2023-08-17T06:55:00;98636.66;;;23.66;88.80
41624;BME280;27319;50.306;18.926;2023-08-17T06:59:01;98640.28;;;24.34;84.36
41624;BME280;27319;50.306;18.926;2023-08-17T07:03:02;98638.28;;;24.46;84.52
41624;BME280;27319;50.306;18.926;2023-08-17T07:07:02;98637.53;;;24.62;85.43
41624;BME280;27319;50.306;18.926;2023-08-17T07:11:03;98639.56;;;24.55;84.26
41624;BME280;27319;50.306;18.926;2023-08-17T07:15:04;98639.38;;;24.45;84.14
41624;BME280;27319;50.306;18.926;2023-08-17T07:19:05;98641.94;;;24.35;84.04
41624;BME280;27319;50.306;18.926;2023-08-17T07:23:06;98636.41;;;24.18;84.65
41624;BME280;27319;50.306;18.926;2023-08-17T07:27:06;98644.56;;;24.30;83.36
41624;BME280;27319;50.306;18.926;2023-08-17T07:31:07;98635.31;;;24.47;83.27
41624;BME280;27319;50.306;18.926;2023-08-17T07:35:08;98631.09;;;24.56;84.11
41624;BME280;27319;50.306;18.926;2023-08-17T07:39:09;98639.69;;;24.76;82.30
41624;BME280;27319;50.306;18.926;2023-08-17T07:43:09;98636.53;;;24.84;81.25
41624;BME280;27319;50.306;18.926;2023-08-17T07:47:12;98636.53;;;24.68;81.97
41624;BME280;27319;50.306;18.926;2023-08-17T07:51:12;98641.22;;;24.84;82.33
41624;BME280;27319;50.306;18.926;2023-08-17T07:55:13;98635.75;;;25.22;80.32
41624;BME280;27319;50.306;18.926;2023-08-17T07:59:14;98638.41;;;25.50;78.76
41624;BME280;27319;50.306;18.926;2023-08-17T08:03:15;98647.72;;;25.11;80.81
41624;BME280;27319;50.306;18.926;2023-08-17T08:07:15;98640.47;;;25.05;81.13
41624;BME280;27319;50.306;18.926;2023-08-17T08:11:16;98647.03;;;25.37;80.78
41624;BME280;27319;50.306;18.926;2023-08-17T08:15:17;98642.06;;;25.34;79.85
41624;BME280;27319;50.306;18.926;2023-08-17T08:19:18;98646.31;;;25.63;79.03
41624;BME280;27319;50.306;18.926;2023-08-17T08:23:19;98641.00;;;25.78;77.86
41624;BME280;27319;50.306;18.926;2023-08-17T08:27:19;98640.59;;;26.07;78.01
41624;BME280;27319;50.306;18.926;2023-08-17T08:31:23;98639.88;;;26.17;76.01
41624;BME280;27319;50.306;18.926;2023-08-17T08:35:24;98629.75;;;26.22;75.44
41624;BME280;27319;50.306;18.926;2023-08-17T08:39:25;98632.47;;;26.44;76.00
41624;BME280;27319;50.306;18.926;2023-08-17T08:43:26;98636.09;;;26.49;74.72
41624;BME280;27319;50.306;18.926;2023-08-17T08:47:26;98632.84;;;26.52;73.75
41624;BME280;27319;50.306;18.926;2023-08-17T08:51:27;98633.16;;;26.56;73.92
41624;BME280;27319;50.306;18.926;2023-08-17T08:55:41;98627.72;;;26.92;74.20
41624;BME280;27319;50.306;18.926;2023-08-17T08:59:33;98622.56;;;27.06;70.66
41624;BME280;27319;50.306;18.926;2023-08-17T09:03:32;98620.53;;;27.23;71.00
41624;BME280;27319;50.306;18.926;2023-08-17T09:07:33;98611.84;;;27.41;70.82
41624;BME280;27319;50.306;18.926;2023-08-17T09:11:33;98611.53;;;27.32;68.58
41624;BME280;27319;50.306;18.926;2023-08-17T09:15:34;98614.84;;;27.03;70.04
41624;BME280;27319;50.306;18.926;2023-08-17T09:19:35;98606.44;;;26.88;70.76
41624;BME280;27319;50.306;18.926;2023-08-17T09:23:38;98610.63;;;27.27;69.25
41624;BME280;27319;50.306;18.926;2023-08-17T09:27:37;98602.25;;;27.53;67.14
41624;BME280;27319;50.306;18.926;2023-08-17T09:31:37;98611.09;;;27.60;64.61
41624;BME280;27319;50.306;18.926;2023-08-17T09:35:38;98601.25;;;27.74;63.19
41624;BME280;27319;50.306;18.926;2023-08-17T09:39:38;98597.31;;;28.26;64.39
41624;BME280;27319;50.306;18.926;2023-08-17T09:43:39;98587.47;;;28.51;64.31
41624;BME280;27319;50.306;18.926;2023-08-17T09:47:42;98593.00;;;28.65;63.44
41624;BME280;27319;50.306;18.926;2023-08-17T09:51:43;98587.19;;;28.52;63.16
41624;BME280;27319;50.306;18.926;2023-08-17T09:55:44;98579.69;;;28.38;57.07
41624;BME280;27319;50.306;18.926;2023-08-17T09:59:25;98578.59;;;28.48;57.97
41624;BME280;27319;50.306;18.926;2023-08-17T10:02:49;98581.13;;;28.55;58.20
41624;BME280;27319;50.306;18.926;2023-08-17T10:06:47;98586.94;;;29.08;60.76
41624;BME280;27319;50.306;18.926;2023-08-17T10:10:28;98595.34;;;29.87;59.99
41624;BME280;27319;50.306;18.926;2023-08-17T10:16:57;98600.25;;;30.10;56.70
41624;BME280;27319;50.306;18.926;2023-08-17T10:20:21;98599.38;;;30.14;55.00
41624;BME280;27319;50.306;18.926;2023-08-17T10:24:21;98588.56;;;30.66;56.99
41624;BME280;27319;50.306;18.926;2023-08-17T10:28:22;98590.28;;;30.57;53.10
41624;BME280;27319;50.306;18.926;2023-08-17T10:32:23;98582.72;;;30.63;54.26
41624;BME280;27319;50.306;18.926;2023-08-17T10:36:24;98593.75;;;31.06;52.02
41624;BME280;27319;50.306;18.926;2023-08-17T10:40:25;98584.53;;;30.44;51.82
41624;BME280;27319;50.306;18.926;2023-08-17T10:44:43;98577.06;;;30.83;52.80
41624;BME280;27319;50.306;18.926;2023-08-17T10:48:44;98582.75;;;30.96;50.33
41624;BME280;27319;50.306;18.926;2023-08-17T10:52:30;98590.50;;;30.99;50.92
41624;BME280;27319;50.306;18.926;2023-08-17T10:55:57;98591.47;;;31.13;51.77
41624;BME280;27319;50.306;18.926;2023-08-17T11:00:16;98590.06;;;31.16;50.11
41624;BME280;27319;50.306;18.926;2023-08-17T11:04:23;98591.03;;;31.58;50.58
41624;BME280;27319;50.306;18.926;2023-08-17T11:12:09;98599.53;;;32.56;48.89
41624;BME280;27319;50.306;18.926;2023-08-17T11:16:08;98590.34;;;30.86;49.80
41624;BME280;27319;50.306;18.926;2023-08-17T11:20:08;98594.22;;;30.46;53.65
41624;BME280;27319;50.306;18.926;2023-08-17T11:24:09;98589.94;;;30.20;52.25
41624;BME280;27319;50.306;18.926;2023-08-17T11:28:09;98590.03;;;29.95;54.40
41624;BME280;27319;50.306;18.926;2023-08-17T11:32:16;98585.16;;;29.72;54.94
41624;BME280;27319;50.306;18.926;2023-08-17T11:36:14;98591.06;;;29.31;58.30
41624;BME280;27319;50.306;18.926;2023-08-17T11:40:15;98593.56;;;28.92;57.11
41624;BME280;27319;50.306;18.926;2023-08-17T11:44:15;98593.00;;;28.51;56.67
41624;BME280;27319;50.306;18.926;2023-08-17T11:48:15;98614.38;;;27.99;57.49
41624;BME280;27319;50.306;18.926;2023-08-17T11:52:16;98632.25;;;26.50;70.82
41624;BME280;27319;50.306;18.926;2023-08-17T11:55:44;98664.56;;;24.70;81.43
41624;BME280;27319;50.306;18.926;2023-08-17T11:59:45;98683.59;;;23.92;83.96
41624;BME280;27319;50.306;18.926;2023-08-17T12:03:46;98676.81;;;24.23;82.65
41624;BME280;27319;50.306;18.926;2023-08-17T12:07:46;98660.69;;;23.87;85.38
41624;BME280;27319;50.306;18.926;2023-08-17T12:11:47;98630.97;;;23.56;85.61
41624;BME280;27319;50.306;18.926;2023-08-17T12:15:50;98621.41;;;23.70;85.30
41624;BME280;27319;50.306;18.926;2023-08-17T12:19:54;98608.78;;;23.57;85.93
41624;BME280;27319;50.306;18.926;2023-08-17T12:23:52;98600.97;;;23.38;87.97
41624;BME280;27319;50.306;18.926;2023-08-17T12:27:52;98603.47;;;23.39;85.88
41624;BME280;27319;50.306;18.926;2023-08-17T12:31:53;98607.00;;;23.51;86.35
41624;BME280;27319;50.306;18.926;2023-08-17T12:35:54;98621.41;;;23.70;85.27
41624;BME280;27319;50.306;18.926;2023-08-17T12:39:55;98619.91;;;23.05;90.52
41624;BME280;27319;50.306;18.926;2023-08-17T12:43:56;98614.00;;;22.44;95.99
41624;BME280;27319;50.306;18.926;2023-08-17T12:47:56;98623.25;;;22.95;93.76
41624;BME280;27319;50.306;18.926;2023-08-17T12:51:57;98629.19;;;23.04;92.33
41624;BME280;27319;50.306;18.926;2023-08-17T12:55:58;98632.19;;;23.25;91.97
41624;BME280;27319;50.306;18.926;2023-08-17T12:59:59;98640.19;;;22.63;94.95
41624;BME280;27319;50.306;18.926;2023-08-17T13:04:00;98640.00;;;22.76;95.55
41624;BME280;27319;50.306;18.926;2023-08-17T13:08:00;98631.69;;;22.94;95.44
41624;BME280;27319;50.306;18.926;2023-08-17T13:12:01;98630.38;;;23.08;93.75
41624;BME280;27319;50.306;18.926;2023-08-17T13:16:02;98635.97;;;23.13;93.03
41624;BME280;27319;50.306;18.926;2023-08-17T13:20:03;98636.56;;;23.15;91.83
41624;BME280;27319;50.306;18.926;2023-08-17T13:27:44;98639.66;;;22.95;95.03
41624;BME280;27319;50.306;18.926;2023-08-17T13:31:46;98644.91;;;23.43;93.15
41624;BME280;27319;50.306;18.926;2023-08-17T13:35:45;98639.69;;;23.41;91.43
41624;BME280;27319;50.306;18.926;2023-08-17T13:39:46;98640.41;;;23.25;90.06
41624;BME280;27319;50.306;18.926;2023-08-17T13:43:47;98635.75;;;23.26;92.97
41624;BME280;27319;50.306;18.926;2023-08-17T13:47:48;98635.38;;;23.11;92.12
41624;BME280;27319;50.306;18.926;2023-08-17T13:51:29;98625.97;;;23.07;91.59
41624;BME280;27319;50.306;18.926;2023-08-17T13:54:29;98615.97;;;23.12;90.03
41624;BME280;27319;50.306;18.926;2023-08-17T13:57:30;98603.47;;;23.16;90.64
41624;BME280;27319;50.306;18.926;2023-08-17T14:00:31;98603.13;;;23.36;92.01
41624;BME280;27319;50.306;18.926;2023-08-17T14:03:32;98596.19;;;23.45;92.40
41624;BME280;27319;50.306;18.926;2023-08-17T14:06:33;98577.53;;;23.70;87.45
41624;BME280;27319;50.306;18.926;2023-08-17T14:09:34;98574.66;;;23.88;83.72
41624;BME280;27319;50.306;18.926;2023-08-17T14:12:35;98572.94;;;23.87;85.11
41624;BME280;27319;50.306;18.926;2023-08-17T14:15:36;98564.44;;;24.00;86.73
41624;BME280;27319;50.306;18.926;2023-08-17T14:18:37;98569.13;;;23.99;88.62
41624;BME280;27319;50.306;18.926;2023-08-17T14:21:38;98557.47;;;23.81;90.05
41624;BME280;27319;50.306;18.926;2023-08-17T14:24:39;98546.75;;;23.91;89.72
41624;BME280;27319;50.306;18.926;2023-08-17T14:27:40;98534.16;;;24.06;89.31
41624;BME280;27319;50.306;18.926;2023-08-17T14:30:40;98541.81;;;24.21;90.68
41624;BME280;27319;50.306;18.926;2023-08-17T14:33:41;98534.00;;;24.29;88.92
41624;BME280;27319;50.306;18.926;2023-08-17T14:36:42;98531.16;;;24.41;86.73
41624;BME280;27319;50.306;18.926;2023-08-17T14:39:43;98549.97;;;24.32;91.34
41624;BME280;27319;50.306;18.926;2023-08-17T14:42:44;98556.47;;;24.43;90.35
41624;BME280;27319;50.306;18.926;2023-08-17T14:45:45;98569.53;;;24.36;94.00
41624;BME280;27319;50.306;18.926;2023-08-17T14:48:46;98570.25;;;24.31;93.42
41624;BME280;27319;50.306;18.926;2023-08-17T14:51:47;98569.09;;;24.27;92.01
41624;BME280;27319;50.306;18.926;2023-08-17T14:55:08;98557.94;;;24.34;90.27
41624;BME280;27319;50.306;18.926;2023-08-17T14:58:49;98543.91;;;24.47;89.39
41624;BME280;27319;50.306;18.926;2023-08-17T15:01:50;98546.94;;;24.62;87.30
41624;BME280;27319;50.306;18.926;2023-08-17T15:05:13;98540.75;;;24.55;87.57
41624;BME280;27319;50.306;18.926;2023-08-17T15:09:13;98554.81;;;24.42;88.62
41624;BME280;27319;50.306;18.926;2023-08-17T15:13:14;98548.56;;;24.46;88.37
41624;BME280;27319;50.306;18.926;2023-08-17T15:17:15;98550.47;;;24.13;90.55
41624;BME280;27319;50.306;18.926;2023-08-17T15:21:16;98540.44;;;24.07;91.08
41624;BME280;27319;50.306;18.926;2023-08-17T15:25:17;98546.50;;;23.81;91.03
41624;BME280;27319;50.306;18.926;2023-08-17T15:29:17;98550.91;;;23.93;91.58
41624;BME280;27319;50.306;18.926;2023-08-17T15:33:02;98555.72;;;23.75;92.75
41624;BME280;27319;50.306;18.926;2023-08-17T15:36:23;98560.13;;;23.76;91.98
41624;BME280;27319;50.306;18.926;2023-08-17T15:40:23;98564.81;;;23.64;94.33
41624;BME280;27319;50.306;18.926;2023-08-17T15:44:24;98557.16;;;23.66;93.13
41624;BME280;27319;50.306;18.926;2023-08-17T15:48:25;98556.78;;;23.74;92.82
41624;BME280;27319;50.306;18.926;2023-08-17T15:52:26;98557.22;;;23.94;92.42
41624;BME280;27319;50.306;18.926;2023-08-17T15:56:27;98557.94;;;24.34;90.78
41624;BME280;27319;50.306;18.926;2023-08-17T16:00:08;98564.63;;;24.38;89.48
41624;BME280;27319;50.306;18.926;2023-08-17T16:03:29;98575.03;;;24.36;89.29
41624;BME280;27319;50.306;18.926;2023-08-17T16:07:29;98568.84;;;24.29;88.07
41624;BME280;27319;50.306;18.926;2023-08-17T16:11:30;98561.03;;;24.21;89.23
41624;BME280;27319;50.306;18.926;2023-08-17T16:15:30;98557.69;;;24.19;88.31
41624;BME280;27319;50.306;18.926;2023-08-17T16:19:31;98560.31;;;23.86;89.18
41624;BME280;27319;50.306;18.926;2023-08-17T16:23:32;98554.16;;;23.79;88.91
41624;BME280;27319;50.306;18.926;2023-08-17T16:27:33;98557.78;;;23.68;89.29
41624;BME280;27319;50.306;18.926;2023-08-17T16:31:34;98552.75;;;23.65;89.41
41624;BME280;27319;50.306;18.926;2023-08-17T16:35:35;98540.63;;;23.61;89.88
41624;BME280;27319;50.306;18.926;2023-08-17T16:39:32;98526.13;;;23.49;89.44
41624;BME280;27319;50.306;18.926;2023-08-17T16:42:52;98518.50;;;23.51;89.12
41624;BME280;27319;50.306;18.926;2023-08-17T16:46:53;98527.66;;;23.17;92.35
41624;BME280;27319;50.306;18.926;2023-08-17T16:50:54;98549.19;;;22.79;97.70
41624;BME280;27319;50.306;18.926;2023-08-17T16:54:35;98534.19;;;22.81;97.75
41624;BME280;27319;50.306;18.926;2023-08-17T16:57:55;98530.75;;;22.97;97.05
41624;BME280;27319;50.306;18.926;2023-08-17T17:01:57;98529.22;;;22.78;95.25
41624;BME280;27319;50.306;18.926;2023-08-17T17:05:57;98543.38;;;22.87;95.20
41624;BME280;27319;50.306;18.926;2023-08-17T17:09:58;98549.44;;;22.89;95.95
41624;BME280;27319;50.306;18.926;2023-08-17T17:13:58;98537.66;;;22.77;96.79
41624;BME280;27319;50.306;18.926;2023-08-17T17:17:59;98545.63;;;22.67;93.70
41624;BME280;27319;50.306;18.926;2023-08-17T17:22:00;98525.50;;;22.73;94.57
41624;BME280;27319;50.306;18.926;2023-08-17T17:26:00;98522.75;;;22.50;93.90
41624;BME280;27319;50.306;18.926;2023-08-17T17:29:41;98524.56;;;22.56;93.61
41624;BME280;27319;50.306;18.926;2023-08-17T17:32:42;98503.75;;;22.55;93.05
41624;BME280;27319;50.306;18.926;2023-08-17T17:36:03;98512.06;;;22.60;92.50
41624;BME280;27319;50.306;18.926;2023-08-17T17:39:24;98507.91;;;22.46;92.68
41624;BME280;27319;50.306;18.926;2023-08-17T17:43:25;98508.63;;;22.53;91.20
41624;BME280;27319;50.306;18.926;2023-08-17T17:47:07;98489.59;;;22.58;90.40
41624;BME280;27319;50.306;18.926;2023-08-17T17:50:28;98484.94;;;22.58;90.65
41624;BME280;27319;50.306;18.926;2023-08-17T17:54:09;98487.34;;;22.43;92.30
41624;BME280;27319;50.306;18.926;2023-08-17T17:57:09;98507.00;;;22.34;90.97
41624;BME280;27319;50.306;18.926;2023-08-17T18:00:30;98495.97;;;22.29;90.79
41624;BME280;27319;50.306;18.926;2023-08-17T18:04:31;98491.59;;;22.62;90.87
41624;BME280;27319;50.306;18.926;2023-08-17T18:08:31;98478.88;;;22.45;90.47
41624;BME280;27319;50.306;18.926;2023-08-17T18:12:12;98473.16;;;22.35;90.99
41624;BME280;27319;50.306;18.926;2023-08-17T18:15:13;98468.13;;;22.32;90.86
41624;BME280;27319;50.306;18.926;2023-08-17T18:18:34;98469.66;;;22.28;90.68
41624;BME280;27319;50.306;18.926;2023-08-17T18:22:35;98472.91;;;22.25;89.03
41624;BME280;27319;50.306;18.926;2023-08-17T18:26:35;98475.88;;;22.35;89.51
41624;BME280;27319;50.306;18.926;2023-08-17T18:30:16;98475.63;;;22.36;90.45
41624;BME280;27319;50.306;18.926;2023-08-17T18:33:17;98469.94;;;22.26;91.67
41624;BME280;27319;50.306;18.926;2023-08-17T18:36:38;98464.97;;;22.46;90.07
41624;BME280;27319;50.306;18.926;2023-08-17T18:40:38;98456.75;;;22.58;89.77
41624;BME280;27319;50.306;18.926;2023-08-17T18:44:39;98447.25;;;22.49;89.87
41624;BME280;27319;50.306;18.926;2023-08-17T18:48:40;98451.97;;;22.42;90.41
41624;BME280;27319;50.306;18.926;2023-08-17T18:52:17;98456.59;;;22.07;93.11
41624;BME280;27319;50.306;18.926;2023-08-17T18:55:19;98470.00;;;21.97;92.40
41624;BME280;27319;50.306;18.926;2023-08-17T18:58:39;98465.13;;;21.99;93.07
41624;BME280;27319;50.306;18.926;2023-08-17T19:02:40;98465.31;;;21.74;95.92
41624;BME280;27319;50.306;18.926;2023-08-17T19:06:41;98473.50;;;21.56;97.15
41624;BME280;27319;50.306;18.926;2023-08-17T19:10:41;98474.94;;;21.77;95.28
41624;BME280;27319;50.306;18.926;2023-08-17T19:14:42;98476.84;;;21.88;95.35